Saint Martin, Minnesota
Current Conditions -  °F | °C
As of 9:34 AM on Saturday 22 Nov 2014 (Local Time) from KPEX Reporting Station
Clear Clear  
Wind Chill: 22°   Ceiling: Unl
Heat Index: 28°   Visibility: 7mi
Dew Point: 26°   Wind: 6mph
Humidity: 92%   Direction: 160°SSE
Pressure: 29.72"   Gusts: NA
Location:  45.5°N, 94.67°W
Report Text: KPEX 221534Z AUTO 16005KT 7SM CLR M02/M03 A2972 RMK AO2 T10231035
Loading
Personal Weather Stations






























Interactive Weather Map New forecast layout! Learn more

10-Day Weather Forecast

Advertisements
Track Severe Weather on mobile